createdAt,value
2022-08-19T00:01:28.989Z,3.92
2022-08-19T00:05:05.290Z,4.00
2022-08-19T00:08:29.149Z,4.45
2022-08-19T00:12:14.086Z,4.53
2022-08-19T00:16:00.125Z,4.07
2022-08-19T00:19:24.900Z,4.10
2022-08-19T00:22:30.344Z,4.28
2022-08-19T00:25:37.808Z,4.20
2022-08-19T00:28:44.825Z,4.30
2022-08-19T00:35:20.484Z,4.53
2022-08-19T00:38:46.358Z,4.32
2022-08-19T00:42:09.791Z,4.32
2022-08-19T00:45:21.424Z,4.65
2022-08-19T00:48:46.541Z,4.57
2022-08-19T00:51:54.273Z,4.28
2022-08-19T00:55:40.349Z,4.43
2022-08-19T00:59:09.865Z,4.28
2022-08-19T01:02:34.723Z,3.90
2022-08-19T01:06:01.056Z,4.05
2022-08-19T01:09:43.606Z,3.90
2022-08-19T01:13:06.920Z,4.07
2022-08-19T01:16:31.052Z,4.30
2022-08-19T01:19:44.665Z,4.30
2022-08-19T01:23:08.885Z,3.85
2022-08-19T01:26:32.266Z,3.92
2022-08-19T01:30:25.984Z,4.25
2022-08-19T01:34:10.397Z,4.37
2022-08-19T01:37:24.867Z,4.22
2022-08-19T01:40:39.247Z,4.45
2022-08-19T01:44:18.120Z,4.28
2022-08-19T01:48:01.312Z,4.45
2022-08-19T01:51:26.747Z,4.15
2022-08-19T01:54:58.755Z,4.28
2022-08-19T01:58:33.775Z,3.92
2022-08-19T02:01:41.330Z,4.30
2022-08-19T02:05:06.519Z,4.62
2022-08-19T02:08:17.508Z,4.12
2022-08-19T02:11:28.235Z,4.55
2022-08-19T02:14:35.281Z,4.60
2022-08-19T02:18:00.928Z,4.55
2022-08-19T02:21:24.897Z,3.72
2022-08-19T02:24:30.204Z,4.53
2022-08-19T02:27:55.064Z,4.18
2022-08-19T02:30:59.711Z,3.80
2022-08-19T02:34:04.817Z,4.20
2022-08-19T02:37:32.211Z,4.22
2022-08-19T02:40:41.769Z,4.12
2022-08-19T02:44:29.882Z,3.97
2022-08-19T02:47:50.101Z,4.10
2022-08-19T02:51:21.450Z,4.20
2022-08-19T02:54:45.153Z,4.72
2022-08-19T02:58:29.629Z,4.40
2022-08-19T03:01:53.012Z,4.60
2022-08-19T03:05:45.895Z,4.25
2022-08-19T03:09:08.743Z,4.45
2022-08-19T03:12:52.458Z,4.43
2022-08-19T03:16:19.083Z,4.40
2022-08-19T03:19:47.107Z,5.05
2022-08-19T03:23:13.818Z,4.50
2022-08-19T03:26:22.835Z,4.60
2022-08-19T03:29:32.773Z,4.25
2022-08-19T03:32:52.465Z,4.70
2022-08-19T03:36:24.332Z,4.47
2022-08-19T03:39:28.533Z,4.47
2022-08-19T03:42:48.691Z,4.60
2022-08-19T03:46:21.564Z,4.28
2022-08-19T03:49:48.742Z,4.37
2022-08-19T03:52:57.347Z,4.70
2022-08-19T03:56:03.197Z,4.57
2022-08-19T03:59:10.106Z,3.95
2022-08-19T04:02:13.917Z,4.60
2022-08-19T04:05:18.863Z,4.43
2022-08-19T04:08:56.163Z,4.50
2022-08-19T04:12:06.471Z,4.07
2022-08-19T04:15:13.098Z,5.43
2022-08-19T04:22:00.487Z,4.68
2022-08-19T04:25:07.216Z,4.62
2022-08-19T04:28:30.607Z,4.70
2022-08-19T04:31:38.451Z,4.53
2022-08-19T04:35:02.343Z,4.80
2022-08-19T04:38:36.089Z,4.25
2022-08-19T04:42:20.684Z,4.60
2022-08-19T04:46:00.957Z,5.07
2022-08-19T04:49:24.847Z,4.60
2022-08-19T04:53:10.209Z,4.40
2022-08-19T04:56:55.976Z,4.50
2022-08-19T05:00:48.068Z,4.55
2022-08-19T05:04:13.214Z,4.20
2022-08-19T05:07:58.128Z,4.62
2022-08-19T05:11:40.809Z,4.43
2022-08-19T05:14:53.217Z,4.45
2022-08-19T05:18:36.457Z,5.00
2022-08-19T05:22:20.232Z,4.15
2022-08-19T05:25:48.076Z,4.28
2022-08-19T05:29:40.348Z,4.35
2022-08-19T05:33:04.433Z,4.30
2022-08-19T05:36:35.139Z,4.00
2022-08-19T05:39:38.903Z,4.30
2022-08-19T05:42:43.599Z,3.90
2022-08-19T05:46:18.228Z,4.00
2022-08-19T05:49:42.187Z,4.07
2022-08-19T05:56:54.830Z,3.72
2022-08-19T06:00:24.592Z,4.12
2022-08-19T06:03:29.492Z,3.97
2022-08-19T06:06:53.309Z,3.47
2022-08-19T06:10:18.361Z,3.37
2022-08-19T06:13:59.662Z,3.65
2022-08-19T06:20:55.883Z,3.17
2022-08-19T06:24:25.671Z,3.42
2022-08-19T06:27:31.888Z,3.22
2022-08-19T06:30:35.127Z,3.70
2022-08-19T06:33:58.001Z,3.33
2022-08-19T06:37:06.633Z,3.70
2022-08-19T06:40:33.566Z,3.40
2022-08-19T06:44:00.379Z,3.00
2022-08-19T06:47:28.468Z,3.67
2022-08-19T06:51:00.503Z,3.53
2022-08-19T06:58:43.152Z,3.30
2022-08-19T07:02:27.647Z,3.40
2022-08-19T07:06:43.168Z,3.62
2022-08-19T07:09:45.300Z,3.72
2022-08-19T07:13:07.662Z,3.08
2022-08-19T07:16:15.884Z,3.55
2022-08-19T07:19:28.334Z,3.30
2022-08-19T07:22:35.205Z,2.97
2022-08-19T07:25:59.776Z,3.40
2022-08-19T07:29:04.356Z,3.70
2022-08-19T07:32:14.617Z,3.25
2022-08-19T07:35:45.988Z,2.87
2022-08-19T07:39:15.972Z,3.50
2022-08-19T07:42:22.126Z,3.58
2022-08-19T07:45:45.913Z,3.20
2022-08-19T07:49:19.577Z,3.17
2022-08-19T07:52:25.795Z,3.15
2022-08-19T07:55:42.234Z,3.60
2022-08-19T07:58:57.384Z,3.05
2022-08-19T08:02:06.474Z,3.30
2022-08-19T08:05:32.512Z,3.40
2022-08-19T08:09:07.017Z,3.60
2022-08-19T08:12:42.686Z,2.78
2022-08-19T08:16:10.327Z,3.20
2022-08-19T08:19:25.328Z,3.20
2022-08-19T08:22:51.560Z,3.22
2022-08-19T08:26:16.474Z,3.50
2022-08-19T08:29:34.879Z,3.28
2022-08-19T08:32:43.303Z,3.30
2022-08-19T08:36:14.050Z,2.75
2022-08-19T08:39:39.600Z,3.37
2022-08-19T08:43:15.172Z,2.97
2022-08-19T08:46:43.145Z,2.72
2022-08-19T08:50:16.390Z,3.12
2022-08-19T08:53:29.643Z,3.03
2022-08-19T08:56:43.874Z,2.80
2022-08-19T09:00:35.752Z,2.70
2022-08-19T09:03:41.359Z,2.67
2022-08-19T09:15:17.609Z,2.78
2022-08-19T09:16:31.707Z,3.00
2022-08-19T09:19:34.133Z,2.95
2022-08-19T09:23:29.067Z,2.95
2022-08-19T09:27:18.621Z,3.50
2022-08-19T09:30:53.207Z,2.72
2022-08-19T09:34:24.311Z,3.10
2022-08-19T09:37:59.757Z,3.03
2022-08-19T09:41:36.023Z,3.45
2022-08-19T09:45:10.437Z,3.37
2022-08-19T09:49:06.271Z,3.17
2022-08-19T09:52:32.996Z,3.05
2022-08-19T09:56:04.311Z,2.75
2022-08-19T09:59:41.462Z,2.95
2022-08-19T10:03:29.948Z,3.05
2022-08-19T10:07:28.923Z,3.05
2022-08-19T10:11:27.765Z,3.22
2022-08-19T10:18:22.646Z,3.10
2022-08-19T10:22:12.262Z,2.80
2022-08-19T10:25:54.827Z,2.85
2022-08-19T10:29:59.890Z,2.75
2022-08-19T10:33:42.571Z,2.80
2022-08-19T10:37:56.736Z,3.10
2022-08-19T10:41:17.856Z,3.33
2022-08-19T10:45:07.126Z,2.92
2022-08-19T10:48:45.408Z,3.40
2022-08-19T10:52:38.883Z,3.00
2022-08-19T10:56:40.050Z,2.80
2022-08-19T11:00:39.315Z,3.03
2022-08-19T11:04:14.690Z,3.03
2022-08-19T11:07:53.992Z,2.78
2022-08-19T11:11:41.923Z,2.75
2022-08-19T11:15:31.568Z,3.03
2022-08-19T11:19:15.323Z,3.65
2022-08-19T11:22:57.461Z,2.60
2022-08-19T11:26:40.857Z,2.90
2022-08-19T11:30:17.147Z,2.83
2022-08-19T11:34:10.414Z,3.05
2022-08-19T11:37:43.990Z,3.28
2022-08-19T11:41:55.916Z,3.33
2022-08-19T11:45:30.293Z,5.93
2022-08-19T11:49:00.483Z,5.87
2022-08-19T11:52:28.352Z,5.07
2022-08-19T11:56:20.976Z,5.57
2022-08-19T12:00:10.273Z,6.15
2022-08-19T12:04:02.885Z,4.60
2022-08-19T12:07:20.544Z,4.30
2022-08-19T12:11:17.157Z,4.68
2022-08-19T12:14:47.633Z,4.80
2022-08-19T12:18:56.966Z,5.40
2022-08-19T12:22:32.762Z,4.93
2022-08-19T12:26:15.537Z,6.15
2022-08-19T12:29:56.714Z,6.87
2022-08-19T12:33:45.351Z,7.10
2022-08-19T12:37:35.577Z,7.40
2022-08-19T12:41:27.015Z,8.00
2022-08-19T12:45:01.403Z,7.40
2022-08-19T12:48:56.162Z,6.80
2022-08-19T12:52:28.398Z,6.68
2022-08-19T12:56:32.841Z,6.10
2022-08-19T13:00:20.389Z,5.87
2022-08-19T13:04:09.624Z,6.32
2022-08-19T13:07:47.285Z,5.23
2022-08-19T13:11:35.681Z,5.50
2022-08-19T13:15:18.404Z,3.55
2022-08-19T13:19:01.121Z,2.87
2022-08-19T13:22:50.522Z,2.35
2022-08-19T13:26:32.945Z,2.40
2022-08-19T13:30:47.252Z,2.40
2022-08-19T13:34:32.384Z,2.80
2022-08-19T13:38:42.657Z,2.50
2022-08-19T13:42:10.393Z,2.33
2022-08-19T13:46:12.989Z,2.70
2022-08-19T13:49:49.346Z,3.53
2022-08-19T13:53:49.159Z,2.83
2022-08-19T13:57:34.171Z,2.92
2022-08-19T14:01:39.900Z,2.75
2022-08-19T14:05:44.637Z,2.55
2022-08-19T14:09:26.303Z,2.25
2022-08-19T14:13:35.070Z,2.15
2022-08-19T14:17:21.193Z,2.50
2022-08-19T14:21:26.534Z,2.20
2022-08-19T14:25:25.233Z,2.60
2022-08-19T14:29:31.701Z,2.50
2022-08-19T14:33:23.494Z,2.22
2022-08-19T14:37:34.184Z,2.00
2022-08-19T14:41:20.373Z,2.40
2022-08-19T14:45:17.975Z,2.33
2022-08-19T14:49:21.917Z,1.40
2022-08-19T14:53:12.691Z,1.48
2022-08-19T14:57:18.716Z,1.73
2022-08-19T15:00:53.549Z,1.27
2022-08-19T15:04:58.258Z,1.23
2022-08-19T15:08:33.316Z,1.35
2022-08-19T15:12:35.088Z,1.80
2022-08-19T15:16:05.685Z,1.20
2022-08-19T15:20:17.219Z,1.33
2022-08-19T15:23:53.937Z,1.73
2022-08-19T15:27:33.097Z,1.67
2022-08-19T15:31:07.056Z,1.33
2022-08-19T15:35:09.618Z,1.67
2022-08-19T15:38:39.554Z,1.75
2022-08-19T15:42:43.926Z,1.42
2022-08-19T15:46:25.377Z,1.35
2022-08-19T15:50:37.298Z,1.35
2022-08-19T15:54:18.030Z,1.12
2022-08-19T15:58:27.695Z,1.20
2022-08-19T16:02:11.633Z,1.48
2022-08-19T16:06:42.367Z,1.10
2022-08-19T16:10:26.825Z,1.60
2022-08-19T16:14:12.221Z,1.40
2022-08-19T16:17:48.972Z,1.40
2022-08-19T16:21:39.721Z,1.52
2022-08-19T16:25:14.766Z,1.48
2022-08-19T16:29:01.062Z,1.92
2022-08-19T16:32:53.370Z,1.35
2022-08-19T16:36:24.793Z,0.98
2022-08-19T16:40:18.061Z,2.72
2022-08-19T16:43:53.611Z,1.25
2022-08-19T16:48:00.708Z,1.80
2022-08-19T16:51:46.667Z,1.70
2022-08-19T16:55:33.033Z,1.92
2022-08-19T16:59:08.576Z,2.17
2022-08-19T17:03:14.724Z,2.10
2022-08-19T17:06:36.668Z,1.90
2022-08-19T17:09:41.625Z,1.95
2022-08-19T17:12:47.797Z,2.20
2022-08-19T17:15:52.916Z,2.17
2022-08-19T17:18:58.992Z,2.33
2022-08-19T17:22:06.375Z,2.20
2022-08-19T17:25:21.268Z,2.08
2022-08-19T17:28:29.267Z,2.33
2022-08-19T17:31:32.751Z,2.10
2022-08-19T17:34:40.198Z,1.70
2022-08-19T17:37:43.537Z,1.90
2022-08-19T17:41:04.172Z,2.12
2022-08-19T17:44:07.261Z,1.95
2022-08-19T17:47:13.042Z,1.80
2022-08-19T17:50:18.603Z,1.98
2022-08-19T17:53:22.019Z,1.80
2022-08-19T17:56:29.114Z,2.12
2022-08-19T17:59:32.230Z,1.60
2022-08-19T18:02:35.330Z,1.95
2022-08-19T18:06:00.825Z,1.77
2022-08-19T18:09:49.229Z,1.70
2022-08-19T18:13:17.254Z,1.62
2022-08-19T18:16:25.706Z,2.10
2022-08-19T18:19:41.544Z,1.87
2022-08-19T18:22:50.361Z,1.90
2022-08-19T18:25:55.366Z,3.05
2022-08-19T18:29:02.018Z,1.87
2022-08-19T18:32:15.183Z,1.70
2022-08-19T18:35:29.588Z,1.73
2022-08-19T18:39:03.913Z,1.70
2022-08-19T18:43:03.730Z,1.92
2022-08-19T18:46:38.787Z,2.70
2022-08-19T18:50:11.846Z,3.12
2022-08-19T18:57:18.915Z,2.75
2022-08-19T19:00:38.490Z,2.92
2022-08-19T19:04:25.231Z,2.65
2022-08-19T19:07:56.014Z,2.10
2022-08-19T19:11:50.884Z,2.35
2022-08-19T19:15:43.072Z,2.22
2022-08-19T19:19:42.841Z,2.78
2022-08-19T19:23:22.590Z,2.53
2022-08-19T19:27:47.284Z,2.35
2022-08-19T19:31:34.172Z,2.60
2022-08-19T19:35:00.698Z,2.62
2022-08-19T19:38:48.644Z,2.58
2022-08-19T19:42:49.740Z,2.60
2022-08-19T19:49:18.303Z,2.53
2022-08-19T19:52:46.073Z,2.67
2022-08-19T19:56:13.857Z,2.47
2022-08-19T19:59:51.652Z,3.08
2022-08-19T20:03:32.623Z,3.10
2022-08-19T20:07:15.660Z,3.55
2022-08-19T20:10:23.325Z,3.05
2022-08-19T20:13:47.877Z,3.25
2022-08-19T20:17:32.622Z,4.22
2022-08-19T20:21:17.973Z,4.12
2022-08-19T20:25:28.064Z,4.35
2022-08-19T20:29:37.905Z,4.95
2022-08-19T20:32:59.039Z,4.72
2022-08-19T20:36:22.500Z,5.03
2022-08-19T20:39:28.254Z,4.43
2022-08-19T20:42:35.551Z,4.50
2022-08-19T20:48:50.104Z,5.35
2022-08-19T20:54:56.885Z,6.30
2022-08-19T20:58:01.092Z,7.07
2022-08-19T21:01:07.862Z,7.32
2022-08-19T21:04:11.417Z,8.63
2022-08-19T21:07:15.311Z,8.27
2022-08-19T21:10:18.691Z,8.13
2022-08-19T21:13:23.030Z,7.37
2022-08-19T21:16:28.253Z,7.70
2022-08-19T21:19:31.167Z,6.78
2022-08-19T21:22:34.458Z,6.90
2022-08-19T21:25:37.261Z,7.25
2022-08-19T21:28:40.376Z,7.37
2022-08-19T21:31:43.428Z,7.30
2022-08-19T21:34:49.242Z,6.97
2022-08-19T21:37:52.151Z,5.87
2022-08-19T21:40:58.255Z,5.70
2022-08-19T21:44:01.444Z,5.12
2022-08-19T21:47:05.521Z,5.43
2022-08-19T21:50:12.701Z,5.20
2022-08-19T21:53:19.128Z,5.10
2022-08-19T21:56:25.366Z,5.68
2022-08-19T21:59:28.543Z,5.00
2022-08-19T22:02:31.681Z,4.95
2022-08-19T22:05:42.202Z,4.87
2022-08-19T22:08:48.160Z,4.75
2022-08-19T22:11:51.240Z,4.57
2022-08-19T22:14:58.540Z,4.30
2022-08-19T22:18:04.051Z,4.70
2022-08-19T22:21:11.680Z,5.00
2022-08-19T22:24:17.386Z,4.80
2022-08-19T22:27:28.495Z,4.45
2022-08-19T22:30:34.024Z,4.70
2022-08-19T22:33:39.209Z,5.57
2022-08-19T22:36:42.476Z,4.97
2022-08-19T22:39:50.582Z,5.85
2022-08-19T22:43:04.924Z,5.60
2022-08-19T22:46:17.438Z,5.32
2022-08-19T22:49:24.173Z,4.85
2022-08-19T22:52:31.810Z,5.50
2022-08-19T22:55:36.410Z,5.62
2022-08-19T22:58:42.339Z,5.40
2022-08-19T23:01:49.033Z,5.53
2022-08-19T23:04:52.416Z,5.18
2022-08-19T23:07:58.035Z,5.15
2022-08-19T23:11:01.191Z,4.87
2022-08-19T23:14:07.747Z,4.75
2022-08-19T23:17:11.826Z,4.90
2022-08-19T23:20:18.371Z,5.30
2022-08-19T23:23:24.908Z,4.97
2022-08-19T23:26:29.246Z,5.18
2022-08-19T23:29:54.931Z,4.68
2022-08-19T23:33:11.026Z,4.37
2022-08-19T23:36:21.678Z,4.75
2022-08-19T23:39:30.282Z,4.22
2022-08-19T23:42:55.283Z,4.03
2022-08-19T23:46:00.933Z,4.45
2022-08-19T23:49:04.123Z,4.03
2022-08-19T23:52:07.523Z,4.28
2022-08-19T23:55:11.185Z,4.03
2022-08-19T23:58:19.849Z,3.73
